Date,TemperatureHighF,TemperatureAvgF,TemperatureLowF,DewpointHighF,DewpointAvgF,DewpointLowF,HumidityHigh,HumidityAvg,HumidityLow,PressureMaxIn,PressureMinIn,WindSpeedMaxMPH,WindSpeedAvgMPH,GustSpeedMaxMPH,PrecipitationSumIn
2013-1-1,41.4,37.8,31.1,29.4,24.4,13.6,66,58,49,30.00,29.83,11,3,16,0.00
2013-1-2,36.7,29.0,23.5,14.7,11.8,7.8,58,48,39,30.19,30.03,11,2,15,0.00
2013-1-3,37.9,27.6,19.0,18.0,12.7,8.5,68,54,38,30.21,30.08,7,1,13,0.00
2013-1-4,38.7,34.4,28.0,22.2,19.5,16.7,66,54,47,30.12,29.98,11,3,23,0.00
2013-1-5,46.0,33.4,26.6,24.5,19.2,16.1,69,56,41,30.31,30.04,11,2,14,0.00
2013-1-6,51.3,37.1,30.0,34.2,27.0,20.4,83,68,48,30.25,29.98,7,1,11,0.05
2013-1-7,51.6,35.9,23.0,30.8,23.2,15.3,73,61,38,30.42,30.07,10,1,14,0.00
2013-1-8,51.4,29.6,20.5,33.5,21.6,14.4,79,72,49,30.45,30.37,6,0,11,0.00
2013-1-9,54.3,42.3,27.3,39.4,31.9,20.5,80,67,54,30.41,30.14,9,1,18,0.00
2013-1-10,53.6,42.5,31.8,32.5,25.7,21.9,70,52,33,30.55,30.26,8,2,14,0.00
2013-1-11,48.9,40.7,30.6,42.1,32.8,22.5,85,73,63,30.54,30.07,5,1,8,0.62
2013-1-12,48.2,46.0,44.2,42.2,40.7,39.9,85,82,77,30.17,30.11,4,1,6,1.00
2013-1-13,54.3,47.0,40.8,46.4,41.6,36.8,86,81,70,30.16,30.00,6,1,10,0.00
2013-1-14,59.7,52.8,38.5,53.0,40.8,27.1,87,65,44,30.28,30.01,8,2,15,0.06
2013-1-15,39.2,37.4,34.5,32.9,28.6,26.2,82,70,63,30.34,30.19,7,1,8,0.28
2013-1-16,39.7,35.5,33.3,35.1,29.7,26.7,84,79,73,30.20,29.78,8,2,12,0.74
2013-1-17,44.8,39.3,36.0,29.9,28.0,24.1,72,64,53,30.09,29.99,8,1,14,0.00
2013-1-18,36.7,28.4,21.4,24.2,12.0,-3.5,63,51,25,30.51,29.98,11,1,21,0.08
2013-1-19,54.1,34.5,23.7,26.9,17.2,7.6,63,50,32,30.43,30.07,11,3,17,0.00
2013-1-20,59.0,47.9,32.4,30.0,19.9,6.0,60,34,22,30.04,29.71,15,5,24,0.00
2013-1-21,32.0,28.9,25.0,19.0,13.9,3.5,71,54,34,30.11,29.83,4,1,8,0.00
2013-1-22,25.5,16.9,13.5,-2.0,-9.1,-13.2,38,29,22,30.24,30.04,12,5,20,0.00
2013-1-23,21.7,13.3,5.4,-2.9,-6.4,-11.7,64,41,24,30.28,30.18,11,2,17,0.00
2013-1-24,27.1,19.3,12.0,0.2,-6.8,-10.0,55,30,21,30.42,30.19,13,4,21,0.00
2013-1-25,25.2,16.8,5.5,10.3,2.9,-4.8,68,55,26,30.43,30.07,7,1,9,0.00
2013-1-26,30.2,21.9,18.1,8.6,2.1,-18.7,59,42,32,30.39,30.07,8,2,13,3.82
2013-1-27,36.5,22.7,8.4,12.6,5.8,-2.1,67,49,28,30.55,30.39,8,1,14,0.00
2013-1-28,34.5,32.3,26.4,28.7,25.1,15.0,80,75,61,30.42,30.02,7,1,12,0.10
2013-1-29,57.7,42.2,31.6,42.6,34.5,26.3,84,74,55,30.14,30.01,4,1,7,2.36
2013-1-30,69.1,54.1,39.9,55.2,46.4,36.1,92,76,62,30.06,29.46,14,3,30,0.03
2013-1-31,49.1,39.9,28.4,37.0,18.0,5.5,69,42,29,29.84,29.27,14,6,30,0.90
2013-2-1,34.2,27.5,22.1,14.1,3.7,-4.2,56,36,24,30.26,29.83,14,3,25,0.00
2013-2-2,34.0,24.5,15.8,14.9,2.3,-4.5,71,40,23,30.33,30.06,11,2,18,0.00
2013-2-3,32.2,24.5,16.3,20.9,15.0,8.9,76,67,55,30.06,29.79,7,1,9,0.02
2013-2-4,32.7,25.4,19.6,16.3,7.6,2.0,70,47,31,30.02,29.83,11,3,18,0.01
2013-2-5,32.9,30.3,24.4,24.5,22.5,14.9,76,72,64,29.97,29.88,5,1,8,0.00
2013-2-6,41.5,34.4,24.1,24.1,17.7,8.3,75,50,41,30.36,30.07,11,3,17,0.02
2013-2-7,35.8,27.8,18.9,25.6,13.4,5.3,67,55,41,30.50,30.30,8,1,18,3.36
2013-2-8,40.3,35.7,27.9,34.0,28.9,20.7,79,76,74,30.17,29.46,16,6,27,1.06
2013-2-9,36.5,28.2,19.9,23.1,12.5,1.3,79,53,29,30.20,29.60,14,4,30,0.17
2013-2-10,47.7,26.3,7.3,18.9,7.2,-2.2,69,47,21,30.36,30.18,6,1,11,0.03
2013-2-11,52.9,43.7,28.2,46.6,36.1,17.1,83,74,63,30.21,29.50,10,2,103,4.90
2013-2-12,50.9,40.6,28.2,36.0,24.2,17.8,71,53,37,29.84,29.60,14,3,25,0.00
2013-2-13,45.3,32.8,20.1,28.4,19.2,-11.9,75,59,14,29.83,29.53,6,1,10,0.02
2013-2-14,51.4,36.1,28.9,32.5,25.2,-12.2,77,66,11,29.89,29.55,8,1,10,0.17
2013-2-15,61.0,42.3,25.9,36.4,28.5,18.1,78,60,32,29.90,29.76,8,1,12,0.02
2013-2-16,43.5,36.6,31.1,30.4,25.6,15.6,74,65,45,29.81,29.58,8,2,13,0.00
2013-2-17,34.9,26.6,18.9,0.8,-3.2,-10.7,34,26,22,29.90,29.55,15,7,30,0.00
2013-2-18,36.1,29.7,20.3,8.3,0.9,-5.9,42,29,22,30.14,30.06,11,3,17,0.00
2013-2-19,54.3,43.1,26.8,36.8,24.5,-5.2,75,53,12,29.93,29.55,11,3,19,0.23
2013-2-20,36.3,29.4,24.3,13.5,5.7,2.2,46,36,28,29.88,29.72,15,6,29,0.00
2013-2-21,36.9,28.6,22.1,12.3,7.8,3.2,51,41,30,30.13,29.86,15,5,30,0.00
2013-2-22,37.6,30.4,21.9,28.0,18.6,8.6,74,61,51,30.26,30.11,9,1,11,0.00
2013-2-23,43.7,38.7,32.7,36.8,31.4,21.5,80,75,56,30.12,29.61,13,2,22,5.80
2013-2-24,51.6,38.8,30.9,37.3,27.2,17.1,76,64,44,29.85,29.59,11,3,23,0.00
2013-2-25,49.5,36.8,26.4,27.2,21.9,15.7,71,55,40,30.10,29.85,8,1,11,5.80
2013-2-26,46.2,35.1,22.5,31.7,25.6,14.5,78,68,51,30.14,29.67,17,4,27,6.11
2013-2-27,58.5,45.1,38.1,49.0,36.9,30.2,80,73,59,29.68,29.34,16,4,24,0.73
2013-2-28,53.4,43.8,35.6,36.4,29.6,25.2,74,58,47,29.49,29.40,9,2,12,0.00
2013-3-1,48.2,38.8,31.6,30.7,25.6,20.8,76,60,42,29.64,29.47,13,3,17,0.00
2013-3-2,46.8,36.2,29.7,24.0,20.2,17.2,63,52,41,29.65,29.55,11,3,17,0.00
2013-3-3,42.8,32.5,27.9,20.3,15.6,11.6,62,50,36,29.64,29.54,12,4,21,0.00
2013-3-4,45.1,34.2,26.4,19.4,14.9,9.5,55,45,34,29.78,29.63,14,4,24,0.00
2013-3-5,52.7,36.4,26.6,26.3,20.4,15.4,75,53,33,29.88,29.78,9,2,16,0.00
2013-3-6,39.7,37.3,27.1,34.0,29.9,19.7,82,75,68,29.82,29.60,21,8,34,0.29
2013-3-7,40.8,35.2,32.0,31.6,27.7,24.9,79,74,66,29.93,29.73,10,3,17,0.11
2013-3-8,39.9,32.5,28.4,31.0,24.8,19.9,77,73,64,30.03,29.85,7,2,14,0.23
2013-3-9,59.4,44.8,27.0,25.1,21.2,14.6,76,43,21,30.18,30.06,6,2,13,0.00
2013-3-10,50.0,35.1,21.4,34.9,25.9,-11.9,78,70,11,30.25,30.17,8,1,11,0.00
2013-3-11,58.3,42.4,27.3,44.1,33.5,-6.0,80,71,11,30.18,29.94,8,2,13,0.00
2013-3-12,55.8,51.9,44.8,49.8,44.8,35.6,82,77,69,29.95,29.53,13,4,20,0.58
2013-3-13,54.7,43.5,33.8,35.8,27.7,18.0,77,56,27,29.77,29.66,9,2,16,0.01
2013-3-14,44.4,35.5,29.1,21.3,10.5,1.3,55,37,23,29.83,29.72,13,4,26,0.00
2013-3-15,50.2,38.5,27.5,25.9,15.1,1.8,59,38,26,29.87,29.58,11,2,21,0.00
2013-3-16,40.8,33.7,28.8,29.3,21.8,-11.7,79,62,15,29.78,29.62,5,0,9,0.00
2013-3-17,40.1,32.3,26.1,21.7,17.1,-18.3,73,54,11,30.16,29.77,8,1,14,0.01
2013-3-18,39.0,32.4,24.3,27.5,20.0,-27.2,78,61,12,30.25,29.79,100,4,100,8.56
2013-3-19,50.7,39.6,35.2,36.0,27.5,13.2,80,63,34,29.79,29.55,12,3,19,0.34
2013-3-20,50.5,39.2,29.8,22.4,14.9,9.4,54,38,23,29.77,29.65,12,2,21,0.00
2013-3-21,38.5,32.8,28.8,23.9,18.0,5.5,75,55,31,29.67,29.49,9,0,14,0.00
2013-3-22,44.8,33.9,25.7,19.5,13.8,6.4,57,44,29,29.77,29.61,10,1,19,0.00
2013-3-23,52.0,38.0,27.7,20.6,16.2,12.6,60,42,26,29.80,29.68,11,1,22,0.02
2013-3-24,49.3,37.6,25.2,24.7,17.7,12.3,62,46,27,29.82,29.55,6,0,14,0.00
2013-3-25,37.9,33.6,29.1,28.9,25.4,-11.2,81,72,15,29.55,29.29,12,1,21,9.63
2013-3-26,55.6,41.0,27.7,33.7,27.4,20.0,78,60,39,29.73,29.45,5,0,11,0.01
2013-3-27,56.5,43.0,32.5,30.1,24.7,18.9,68,50,27,29.85,29.72,9,0,17,0.00
2013-3-28,52.0,42.6,32.0,30.6,26.9,23.8,74,54,38,29.97,29.83,7,0,13,0.00
2013-3-29,60.6,44.1,29.8,29.1,25.3,19.7,76,50,26,30.02,29.91,5,0,14,0.00
2013-3-30,63.3,45.6,29.5,32.0,24.9,16.9,78,49,22,30.04,29.92,8,0,14,0.00
2013-3-31,57.0,43.8,27.7,44.4,33.8,21.7,94,70,36,30.00,29.54,11,1,20,0.41
2013-4-1,67.1,50.5,41.0,45.7,37.0,12.9,93,64,28,29.74,29.47,11,0,25,0.01
2013-4-2,37.8,37.3,36.9,11.0,8.2,6.2,33,29,27,29.95,29.94,2,0,11,0.03
2013-4-3,49.8,39.4,29.1,16.2,11.0,3.3,47,32,21,30.15,29.95,8,1,18,0.00
2013-4-4,51.4,42.4,33.8,28.9,22.5,10.8,59,45,35,30.26,30.01,4,0,11,0.00
2013-4-5,65.7,53.7,37.0,40.5,24.0,17.1,91,36,18,29.85,29.56,6,0,15,0.09
2013-4-6,54.3,41.5,31.5,28.7,21.0,10.3,79,46,22,30.19,29.85,5,0,15,0.00
2013-4-7,62.4,47.7,30.6,44.5,35.6,25.0,83,64,37,30.18,29.87,9,1,20,0.00
2013-4-8,77.4,59.6,46.2,50.5,45.1,40.6,86,61,32,29.93,29.82,4,0,11,0.00
2013-4-9,74.8,67.5,63.0,54.1,53.0,52.2,69,60,48,29.83,29.82,2,0,6,0.00
2013-4-19,69.6,66.2,58.3,63.8,62.3,52.8,94,87,76,30.00,29.51,13,4,22,0.00
2013-4-20,64.0,53.0,46.9,62.4,36.8,24.0,96,59,28,30.15,29.52,9,1,18,0.00
2013-4-21,57.9,44.1,32.7,30.9,24.9,18.2,87,48,26,30.47,29.87,7,0,11,0.00
2013-4-22,49.3,40.7,28.2,38.9,33.7,26.5,98,77,60,30.49,30.31,13,2,27,0.00
2013-4-23,50.9,44.2,41.0,42.7,38.9,34.9,95,82,73,30.32,29.96,11,0,18,0.00
2013-4-24,75.2,54.5,34.5,54.4,45.5,32.4,97,74,46,29.96,29.68,10,0,21,0.00
2013-4-25,68.0,55.1,41.7,53.0,35.9,22.9,87,52,20,30.12,29.73,10,1,21,0.00
2013-4-26,69.8,59.4,41.5,38.4,33.0,22.0,83,41,18,30.25,30.19,9,0,17,0.00
2013-4-27,70.3,52.7,34.3,47.0,32.4,24.4,97,53,21,30.28,30.15,5,0,11,0.00
2013-4-28,71.4,52.1,34.7,47.7,36.0,25.7,99,61,20,30.18,30.06,8,0,19,0.01
2013-4-29,55.2,52.9,50.5,50.8,49.9,48.1,96,90,81,30.08,30.01,3,0,9,0.15
2013-4-30,65.1,56.7,42.4,49.4,40.7,32.2,84,56,38,30.18,30.10,6,1,15,0.00
2013-5-1,63.3,57.0,41.5,48.9,43.4,35.2,98,61,42,30.32,30.26,5,1,17,0.00
2013-5-2,68.9,59.7,48.0,48.3,41.5,36.6,81,54,34,30.30,30.18,3,0,9,0.00
2013-5-3,60.3,48.4,41.5,43.5,41.5,37.5,99,79,47,30.30,30.21,8,1,14,0.00
2013-5-4,63.0,55.4,41.4,49.7,44.0,38.6,99,67,44,30.22,30.13,7,1,14,0.00
2013-5-5,57.6,52.2,45.5,45.3,41.6,38.9,82,67,60,30.14,30.07,9,1,18,7.90
2013-5-6,60.6,53.1,48.6,51.1,48.1,45.3,97,84,64,30.11,30.00,6,0,9,0.00
2013-5-7,63.0,56.6,50.0,55.8,53.4,49.7,99,89,76,30.00,29.92,4,0,11,0.00
2013-5-8,75.2,64.0,56.5,64.2,55.9,50.5,98,76,56,29.88,29.78,11,1,15,0.00
2013-5-9,76.1,64.9,55.6,61.4,55.4,52.2,98,73,50,29.79,29.74,5,0,11,0.00
2013-5-10,81.0,71.1,61.7,61.2,58.0,55.1,86,64,44,29.85,29.72,7,0,12,0.00
2013-5-11,68.4,63.8,61.0,66.3,61.6,56.5,98,93,71,29.76,29.56,8,1,14,0.00
2013-5-12,71.6,61.8,48.9,56.7,36.4,24.2,87,41,22,29.81,29.55,8,1,22,0.00
2013-5-13,61.2,53.3,43.7,36.2,29.0,22.1,61,40,29,29.95,29.85,8,0,17,0.00
2013-5-14,52.0,46.9,45.7,45.2,41.8,32.5,97,85,50,30.00,29.98,1,0,7,0.00
2013-5-15,45.7,45.7,45.7,44.9,44.9,44.9,97,97,97,29.99,29.99,0,0,2,0.00
2013-5-16,45.7,45.7,45.7,44.9,44.9,44.9,97,97,97,29.99,29.99,0,0,2,0.00
2013-5-17,45.7,45.7,45.7,44.9,44.9,44.9,97,97,97,29.99,29.99,0,0,2,0.00
2013-5-18,45.7,45.7,45.7,44.9,44.9,44.9,97,97,97,29.99,29.99,0,0,2,0.00
2013-5-19,45.7,45.7,45.7,44.9,44.9,44.9,97,97,97,29.99,29.99,0,0,2,0.00
2013-5-20,45.7,45.7,45.7,44.9,44.9,44.9,97,97,97,29.99,29.99,0,0,2,0.00
2013-5-21,45.7,44.9,42.4,44.9,44.0,41.1,97,96,94,30.14,29.99,0,0,2,0.00
2013-5-22,57.7,56.0,42.8,53.3,52.0,41.2,94,86,85,30.14,29.99,0,0,2,0.00
2013-5-23,57.7,57.7,57.7,53.3,53.3,53.3,85,85,85,29.99,29.99,0,0,2,0.00
2013-5-24,57.7,57.7,57.7,53.3,53.3,53.3,85,85,85,29.99,29.99,0,0,2,0.00
2013-5-25,57.7,57.7,57.7,53.3,53.3,53.3,85,85,85,29.99,29.99,0,0,2,0.00
2013-5-26,57.7,57.7,57.7,53.3,53.3,53.3,85,85,85,29.99,29.99,0,0,2,0.00
2013-5-27,57.7,57.7,57.7,53.3,53.3,53.3,85,85,85,29.99,29.99,0,0,2,0.00
2013-5-28,68.4,60.7,57.7,60.4,57.8,46.7,97,91,47,30.06,29.96,7,0,14,0.00
2013-5-29,93.4,80.7,42.4,66.9,63.0,41.1,97,58,37,30.14,29.85,8,1,13,0.00
2013-5-30,114.3,80.4,45.5,99.9,65.7,41.6,99,64,33,29.99,29.89,6,0,11,0.00
2013-5-31,98.2,80.1,-40.0,69.4,64.4,-37.0,97,63,27,29.98,29.84,6,1,12,0.00
2013-6-1,95.4,79.8,66.6,67.7,65.1,59.4,93,64,36,29.88,29.74,8,1,18,0.02
2013-6-2,92.1,77.2,68.5,72.5,66.6,63.1,95,72,42,29.78,29.64,10,1,17,0.00
2013-6-3,82.0,71.1,66.2,71.2,67.4,64.5,99,89,60,29.71,29.62,6,0,10,0.00
2013-6-4,79.7,65.4,54.5,65.7,47.3,39.2,99,56,27,29.95,29.71,7,0,14,0.00
2013-6-5,75.7,61.8,51.4,55.7,50.2,43.9,98,68,43,30.04,29.94,4,0,8,0.00
2013-6-6,70.7,63.8,60.6,60.5,58.4,54.7,95,83,62,29.96,29.83,4,0,11,0.00
2013-6-7,69.3,63.6,60.6,68.1,62.8,59.2,99,97,94,29.83,29.39,6,1,11,12.00
2013-6-8,80.1,71.6,63.7,64.2,62.5,60.3,95,74,58,29.87,29.71,6,0,10,0.00
2013-6-9,86.7,78.1,67.6,65.0,58.4,53.2,88,53,38,30.02,29.95,6,1,11,0.00
2013-6-11,81.1,75.6,72.0,65.0,61.4,59.0,64,61,58,29.57,29.48,8,1,15,0.00
2013-6-12,85.6,74.8,61.2,59.7,55.0,50.2,88,53,35,29.69,29.61,8,1,14,0.00
2013-6-13,77.9,65.6,58.6,67.5,60.7,53.8,99,85,59,29.69,29.23,9,0,14,0.00
2013-6-14,77.9,61.5,53.4,58.8,54.2,47.7,98,80,43,29.75,29.30,9,0,14,0.00
2013-6-15,85.5,69.3,54.9,58.0,54.6,47.1,98,65,31,29.86,29.74,7,0,12,0.00
2013-6-16,89.2,71.6,56.7,65.0,59.9,55.0,99,70,41,29.85,29.64,9,0,18,0.00
2013-6-17,78.6,67.0,62.2,67.4,64.5,61.6,99,92,66,29.76,29.70,0,0,4,0.00
2013-6-23,72.1,68.5,54.1,71.2,67.6,53.0,97,97,96,30.13,29.93,0,0,0,0.02
2013-6-24,93.7,81.9,75.0,73.9,70.3,64.0,87,69,45,29.92,29.83,6,1,12,0.00
2013-6-25,93.4,83.0,75.4,71.2,67.8,64.4,74,61,46,29.80,29.67,5,0,9,0.02
2013-6-26,92.5,80.4,72.7,73.2,67.0,61.1,91,66,45,29.70,29.61,7,0,14,0.00
2013-6-27,91.4,82.6,73.6,73.4,70.1,64.7,96,68,47,29.61,29.42,8,1,14,0.00
2013-6-28,89.2,80.7,70.2,70.9,67.3,63.4,89,66,47,29.37,29.32,5,0,13,0.00
2013-6-29,89.1,80.2,70.2,73.2,67.8,61.3,93,68,44,29.55,29.43,6,0,12,0.00
2013-6-30,78.1,71.6,69.8,73.2,68.9,68.0,94,92,82,29.65,29.55,0,0,0,0.00
2013-7-1,74.1,73.6,73.2,71.9,71.4,70.8,94,93,92,29.89,29.86,4,0,11,0.00
2013-7-2,89.1,77.4,72.5,74.2,71.6,67.7,97,83,57,30.04,29.88,6,0,11,0.00
2013-7-3,88.5,77.6,69.4,76.9,71.5,68.5,98,83,60,30.09,30.00,5,0,9,0.00
2013-7-4,94.8,81.5,73.0,74.2,71.3,66.2,98,74,45,30.10,30.00,7,0,13,0.01
2013-7-5,96.4,82.5,71.4,85.7,71.5,66.7,99,73,44,30.07,29.94,7,0,11,0.01
2013-7-6,99.3,84.4,73.8,74.5,71.4,66.4,96,68,39,30.00,29.86,5,0,12,0.00
2013-7-7,97.9,84.8,73.4,72.9,70.6,55.6,94,65,42,30.02,29.77,7,0,12,0.18
2013-7-8,92.7,75.0,70.0,78.2,68.5,63.7,99,82,44,29.90,29.82,4,0,8,0.18
2013-7-9,86.9,83.4,78.3,71.6,69.4,66.6,71,63,54,29.87,29.82,3,0,6,0.00
2013-7-10,92.8,84.6,76.6,75.6,72.0,66.6,88,67,49,29.79,29.67,7,0,13,0.00
2013-7-11,85.8,78.6,74.3,73.3,69.3,64.3,95,74,50,29.74,29.69,2,0,4,0.02
2013-7-12,75.0,70.1,68.5,69.3,67.4,63.8,97,92,71,29.88,29.81,10,2,17,0.00
2013-7-13,88.7,82.4,74.8,74.4,72.5,70.2,91,73,60,30.12,30.02,4,0,11,0.00
2013-7-14,94.5,85.2,74.7,74.6,70.9,65.7,92,64,44,30.17,30.08,3,0,12,0.17
2013-7-15,98.4,88.8,75.9,74.1,71.4,68.0,88,59,40,30.10,29.95,5,0,10,13.60
2013-7-16,97.5,88.3,77.5,72.3,66.6,62.2,82,51,34,30.03,29.95,10,0,30,25.41
2013-7-17,97.9,86.6,77.4,69.7,67.6,64.9,76,55,39,29.95,29.91,4,0,8,0.05
2013-7-18,102.2,84.9,75.6,75.8,70.8,67.5,94,66,37,29.93,29.79,5,0,9,0.47
2013-7-19,100.8,88.3,78.8,77.2,73.3,68.9,89,64,40,29.83,29.65,8,1,14,0.48
2013-7-20,98.4,85.7,77.9,74.0,70.4,66.0,78,62,37,29.69,29.56,11,0,17,4.52
2013-7-21,89.6,77.2,72.3,75.1,68.9,58.7,97,78,44,29.78,29.66,6,0,8,13.75
2013-7-22,88.0,77.1,72.7,75.4,72.7,70.3,99,87,61,29.79,29.66,6,0,10,0.00
2013-7-27,88.9,79.7,70.0,78.3,71.1,57.3,99,79,41,29.89,29.60,4,0,8,0.23
2013-7-28,77.4,77.4,77.4,77.1,77.1,77.1,99,99,99,29.82,29.82,0,0,2,4.56
2013-7-29,77.4,77.4,77.4,77.1,77.1,77.1,99,99,99,29.82,29.82,0,0,2,4.56
2013-7-30,77.4,77.4,77.4,77.1,77.1,77.1,99,99,99,29.82,29.82,0,0,2,4.56
2013-7-31,77.4,77.4,77.4,77.1,77.1,77.1,99,99,99,29.82,29.82,0,0,2,3.99
2013-8-1,77.4,77.4,77.4,77.1,77.1,77.1,99,99,99,29.82,29.82,0,0,2,1.90
2013-8-2,77.4,77.4,77.4,77.1,77.1,77.1,99,99,99,29.82,29.82,0,0,2,2.09
2013-8-3,77.4,77.4,77.4,77.1,77.1,77.1,99,99,99,29.82,29.82,0,0,2,2.66
2013-8-4,77.4,49.7,41.3,77.1,42.1,31.5,99,52,38,29.83,29.82,1,1,2,0.95
2013-8-5,41.3,41.3,41.3,31.5,31.5,31.5,38,38,38,29.83,29.83,1,1,0,0.00
2013-8-6,41.3,41.3,41.3,31.5,31.5,31.5,38,38,38,29.83,29.83,1,1,0,0.00
2013-8-7,41.3,41.3,41.3,31.5,31.5,31.5,38,38,38,29.83,29.83,1,1,0,0.00
2013-8-8,41.3,41.3,41.3,31.5,31.5,31.5,38,38,38,29.83,29.83,1,1,0,0.00
2013-8-9,41.3,41.3,41.3,31.5,31.5,31.5,38,38,38,29.83,29.83,1,1,0,0.00
2013-8-10,41.3,41.3,41.3,31.5,31.5,31.5,38,38,38,29.83,29.83,1,1,0,0.00
2013-8-11,41.3,41.3,41.3,31.5,31.5,31.5,38,38,38,29.83,29.83,1,1,0,0.00
2013-8-12,41.3,41.3,41.3,31.5,31.5,31.5,38,38,38,29.83,29.83,1,1,0,0.00
2013-8-19,41.3,41.3,41.3,31.5,31.5,31.5,38,38,38,29.83,29.83,1,1,0,0.00
2013-8-20,41.3,41.3,41.3,31.5,31.5,31.5,38,38,38,29.83,29.83,1,1,0,0.00
2013-8-21,41.3,41.3,41.3,31.5,31.5,31.5,38,38,38,29.83,29.83,1,1,0,0.00
2013-8-22,41.3,41.3,41.3,31.5,31.5,31.5,38,38,38,29.83,29.83,1,1,0,0.00
2013-8-23,41.3,41.3,41.3,31.5,31.5,31.5,38,38,38,29.83,29.83,1,1,0,0.00
2013-8-24,41.3,41.3,41.3,31.5,31.5,31.5,38,38,38,29.83,29.83,1,1,0,0.00
2013-8-25,41.3,41.3,41.3,31.5,31.5,31.5,38,38,38,29.83,29.83,1,1,0,0.00
2013-8-26,41.3,41.3,41.3,31.5,31.5,31.5,38,38,38,29.83,29.83,1,1,0,0.00
2013-8-27,41.3,41.3,41.3,31.5,31.5,31.5,38,38,38,29.83,29.83,1,1,0,0.00
2013-8-28,41.3,41.3,41.3,31.5,31.5,31.5,38,38,38,29.83,29.83,1,1,0,0.00
2013-9-8,89.6,72.3,41.3,60.1,47.8,31.5,63,41,33,29.91,29.65,6,0,11,0.00
2013-9-9,77.5,62.7,48.7,56.1,47.6,41.0,92,61,33,30.07,29.90,4,0,9,0.00
2013-9-10,92.3,75.3,64.0,67.3,60.0,52.9,77,60,38,30.02,29.88,5,0,12,0.00
2013-9-11,78.8,74.2,72.0,68.4,67.0,65.7,85,78,70,29.97,29.92,4,0,6,0.00
2013-10-1,69.3,63.0,50.5,55.6,54.0,47.7,90,73,58,30.08,29.75,0,0,0,0.00
2013-10-2,86.7,76.5,66.2,57.1,52.5,49.5,69,45,30,29.85,29.75,4,0,10,0.00
2013-10-9,73.4,59.7,58.6,62.6,43.4,41.1,69,55,47,30.16,29.86,11,2,25,0.15
2013-10-10,62.2,58.5,54.5,57.4,51.3,43.8,89,77,57,30.09,29.86,8,1,17,0.00
2013-10-11,64.4,61.8,59.5,57.8,55.3,52.0,89,79,67,29.88,29.80,10,2,17,0.00
2013-10-12,70.5,62.8,60.3,53.4,47.6,38.9,78,58,41,30.07,29.86,14,2,21,0.00
2013-10-13,66.6,59.5,55.2,50.0,45.3,40.6,70,60,43,30.20,30.06,12,1,20,0.10
2013-10-14,55.0,55.0,55.0,42.7,42.7,42.7,63,63,63,30.18,30.18,0,0,0,0.00
2013-10-16,70.9,63.0,57.4,56.0,53.5,48.2,92,72,49,30.05,29.76,1,0,4,10.51
2013-10-17,80.4,64.8,59.7,58.6,56.1,50.3,90,75,39,29.76,29.53,4,0,8,0.99
2013-10-18,71.8,60.6,43.7,59.5,39.7,33.4,81,48,27,29.83,29.53,8,0,16,0.00
2013-10-19,66.4,51.7,36.3,54.6,42.0,33.5,97,73,41,29.84,29.60,4,0,8,0.00
2013-10-20,67.3,52.8,36.3,51.4,34.2,20.8,87,54,20,29.92,29.60,4,0,11,0.00
2013-10-21,73.2,50.3,32.7,49.3,32.3,21.5,96,60,15,30.00,29.84,7,0,13,0.00
2013-10-22,65.7,54.5,39.7,54.7,41.3,37.9,97,64,38,29.70,29.60,2,0,4,0.10
2013-10-23,54.0,47.1,39.4,44.3,35.3,31.1,80,64,43,29.62,29.44,0,0,4,0.00
2013-10-24,57.9,46.4,37.6,33.2,21.3,13.8,73,39,21,29.85,29.72,3,0,11,0.00
2013-10-25,59.2,46.7,35.8,27.6,23.4,18.6,63,42,25,30.08,29.95,4,0,12,0.00
2013-10-26,60.6,50.0,33.8,29.9,23.9,15.5,77,39,18,30.09,29.76,9,0,17,0.00
2013-10-27,62.8,49.9,36.0,29.9,25.2,19.4,73,41,21,29.97,29.79,5,0,12,0.00
2013-10-28,65.8,47.7,35.2,38.0,30.7,22.5,94,58,22,30.14,30.02,5,0,9,0.00
2013-10-29,61.2,46.9,35.4,44.2,34.6,31.5,96,66,36,30.22,30.18,2,0,6,0.00
2013-10-30,58.5,52.3,32.2,49.5,45.4,-99.9,97,81,66,30.14,30.02,0,0,4,11.61
2013-10-31,69.1,64.0,57.0,56.9,52.3,47.4,94,67,54,29.98,29.71,6,0,13,0.00
2013-11-1,70.0,63.4,55.4,57.7,53.8,45.9,93,73,46,29.53,29.41,11,1,22,0.00
2013-11-2,72.3,59.5,49.8,59.1,41.7,31.4,98,56,25,29.62,29.45,2,0,8,0.00
2013-11-3,55.2,45.5,34.3,37.7,26.6,11.5,69,48,29,30.27,29.83,3,0,11,0.00
2013-11-4,45.1,36.5,29.7,27.1,18.7,11.3,80,51,27,30.49,30.41,2,0,6,0.00
2013-11-5,61.7,53.9,42.1,41.6,34.4,30.0,90,49,32,30.47,30.39,1,0,7,0.00
2013-11-9,60.3,42.6,38.7,51.9,27.6,25.6,74,55,48,29.93,29.84,2,0,4,0.00
2013-11-10,66.2,49.6,39.4,30.1,22.6,13.1,65,38,16,29.92,29.67,9,1,24,0.00
2013-11-11,61.2,48.3,35.6,27.9,19.9,11.9,49,33,18,30.08,29.82,8,0,16,0.00
2013-11-12,50.0,37.9,27.5,30.1,17.8,3.8,80,46,26,30.15,29.78,8,0,21,0.00
2013-11-13,45.7,30.9,21.4,9.6,3.8,-5.5,52,33,15,30.23,30.13,5,0,15,0.00
2013-11-14,58.3,46.5,34.7,18.0,6.2,-0.2,44,20,13,30.13,30.02,7,0,18,0.00
2013-11-15,63.1,42.2,27.3,31.6,22.4,11.4,84,50,15,30.11,30.00,2,0,5,0.00
2013-11-16,57.6,44.7,35.6,43.3,36.8,25.0,96,75,55,30.18,30.08,4,0,8,0.00
2013-11-17,69.4,55.4,45.0,58.0,51.4,43.3,94,87,60,30.11,29.63,2,0,8,0.00
2013-11-18,67.8,57.7,46.8,57.7,29.9,13.6,91,41,13,29.63,29.47,6,0,14,0.00
2013-11-19,51.8,41.7,34.9,18.7,14.8,11.3,42,34,22,30.16,29.85,7,0,13,0.00
2013-11-20,44.4,32.4,23.4,16.7,8.8,-2.6,61,39,16,30.44,30.34,3,0,12,0.00
2013-11-21,57.9,45.9,35.4,36.5,32.2,22.3,73,59,39,30.42,30.25,3,0,10,0.00
2013-11-22,59.2,52.8,49.1,46.7,44.4,41.5,83,74,55,30.06,29.76,2,0,4,0.00
2013-11-23,47.3,42.2,30.6,18.8,9.3,3.8,40,26,19,29.88,29.77,5,0,17,0.00
2013-11-24,29.8,24.2,20.3,-6.6,-12.6,-13.9,20,17,15,30.25,30.00,8,1,15,0.00
2013-11-25,36.9,28.9,19.9,4.9,-1.6,-11.6,43,26,16,30.35,30.21,4,0,6,11.61
2013-11-26,52.9,41.2,32.9,49.7,29.7,9.3,93,67,27,30.18,29.66,6,0,14,0.00
2013-11-27,54.3,41.4,35.1,50.8,35.6,18.3,90,80,49,29.49,29.18,8,0,19,0.00
2013-11-28,41.4,32.1,22.5,13.5,4.5,-6.0,62,34,15,30.33,30.03,8,1,17,0.00
2013-11-29,44.4,31.4,20.1,23.6,10.4,4.1,78,44,21,30.54,30.38,4,0,6,0.00
2013-12-3,49.6,35.2,29.5,30.2,28.0,22.4,91,76,44,30.30,29.76,0,0,1,0.00
2013-12-4,54.5,41.7,28.6,43.0,34.3,26.3,92,77,46,29.97,29.85,0,0,3,0.00
2013-12-5,65.1,53.9,46.4,54.4,49.2,43.3,96,85,58,29.96,29.78,5,0,11,0.00
2013-12-6,61.9,49.4,37.8,58.6,46.2,35.3,96,89,80,29.97,29.71,6,0,11,0.00
2013-12-7,43.3,35.9,27.5,35.4,24.5,10.7,91,65,40,30.36,29.91,42,0,12,11.62
2013-12-8,33.3,29.6,28.0,31.0,22.5,8.5,92,76,42,30.43,30.17,3,0,11,0.00
2013-12-9,41.9,37.4,33.6,40.8,35.3,30.0,98,92,85,29.97,29.81,1,0,2,0.00
2013-12-10,33.8,30.7,26.2,29.4,24.3,16.6,86,77,64,29.94,29.73,4,0,8,0.00
2013-12-11,31.5,24.8,20.7,13.1,11.0,9.5,62,55,48,30.21,30.19,0,0,0,0.00
2013-12-12,33.8,23.7,17.2,-0.6,-5.4,-13.0,39,27,16,30.22,30.04,6,0,13,0.00
2013-12-13,40.8,25.9,12.2,12.3,3.0,-3.3,62,39,18,30.19,30.00,3,0,10,0.00
2013-12-14,50.2,32.9,24.1,48.5,25.7,11.8,96,75,51,30.29,29.52,12,1,18,0.00
2013-12-15,53.2,37.7,28.9,51.6,28.2,13.4,96,71,42,30.07,29.31,8,0,16,0.00
2013-12-16,35.2,28.7,24.4,15.8,0.6,-9.7,56,31,17,30.02,29.71,7,0,15,0.00
2013-12-17,26.4,25.4,24.4,20.2,18.6,16.9,77,75,73,29.81,29.76,0,0,1,0.00
2013-12-18,41.4,28.9,21.6,18.5,13.2,7.1,73,53,28,30.04,29.75,4,0,16,0.00
2013-12-19,54.0,34.1,19.6,28.0,18.0,10.0,78,54,24,30.06,29.88,2,0,6,0.00
2013-12-20,57.9,45.5,29.3,45.3,28.8,21.1,82,55,27,29.95,29.82,4,0,13,0.00
2013-12-21,59.9,54.1,51.4,45.9,43.4,41.8,74,67,55,29.86,29.81,4,0,10,0.00
2013-12-22,64.0,63.0,61.9,52.7,51.3,49.4,69,66,60,29.82,29.73,12,2,23,0.00
2013-12-23,63.5,56.1,41.4,59.8,50.7,28.4,93,82,60,29.99,29.72,6,0,15,0.00
2013-12-24,46.2,35.4,26.2,28.8,14.5,-2.4,62,43,24,30.20,29.92,9,1,14,0.00
2013-12-25,36.3,25.0,17.8,25.3,-3.2,-12.0,94,29,17,30.38,30.20,7,0,11,0.00
2013-12-26,44.2,35.3,22.3,19.0,15.9,9.4,78,47,34,30.16,30.01,4,0,11,0.00
2013-12-27,48.0,34.6,20.3,19.9,10.5,0.1,82,41,16,30.23,30.12,6,0,14,0.00
2013-12-28,60.4,48.5,30.4,21.3,17.3,11.6,63,31,17,30.10,29.93,9,1,13,0.00
2013-12-29,52.3,43.0,40.5,50.4,36.2,20.9,93,78,41,29.93,29.24,4,0,14,0.00
2013-12-30,46.9,43.6,41.0,36.6,31.4,21.2,80,64,39,29.83,29.75,6,0,12,0.00
2014-1-1,34.5,33.8,32.5,22.9,20.3,16.4,62,57,51,30.11,30.06,3,0,8,0.00
2014-1-2,36.7,30.0,21.7,27.7,22.7,16.4,82,74,63,30.06,29.45,14,1,17,0.00